createdAt,value
2022-11-30T00:00:05.413Z,83.71
2022-11-30T00:02:41.752Z,84.04
2022-11-30T00:05:13.491Z,83.66
2022-11-30T00:07:43.987Z,84.04
2022-11-30T00:10:14.617Z,83.54
2022-11-30T00:12:44.537Z,83.82
2022-11-30T00:15:18.150Z,84.12
2022-11-30T00:17:49.457Z,83.64
2022-11-30T00:20:19.595Z,83.82
2022-11-30T00:22:49.646Z,83.98
2022-11-30T00:25:19.823Z,84.13
2022-11-30T00:27:49.742Z,84.71
2022-11-30T00:30:19.545Z,84.37
2022-11-30T00:32:49.349Z,84.28
2022-11-30T00:35:19.215Z,84.37
2022-11-30T00:37:48.933Z,84.34
2022-11-30T00:40:18.903Z,84.44
2022-11-30T00:42:48.729Z,84.67
2022-11-30T00:45:18.627Z,84.54
2022-11-30T00:47:48.339Z,84.52
2022-11-30T00:50:18.103Z,84.64
2022-11-30T00:52:48.014Z,84.90
2022-11-30T00:55:17.882Z,84.54
2022-11-30T00:57:47.602Z,84.89
2022-11-30T01:00:17.840Z,85.13
2022-11-30T01:02:48.031Z,85.43
2022-11-30T01:05:17.791Z,85.38
2022-11-30T01:07:47.511Z,85.24
2022-11-30T01:10:17.735Z,85.45
2022-11-30T01:12:47.664Z,85.42
2022-11-30T01:15:17.443Z,85.46
2022-11-30T01:17:47.120Z,85.59
2022-11-30T01:20:16.913Z,85.69
2022-11-30T01:22:46.598Z,85.82
2022-11-30T01:25:16.319Z,85.83
2022-11-30T01:27:50.398Z,86.18
2022-11-30T01:30:20.956Z,86.36
2022-11-30T01:32:50.944Z,86.52
2022-11-30T01:35:20.709Z,86.53
2022-11-30T01:37:51.017Z,86.67
2022-11-30T01:40:21.005Z,86.76
2022-11-30T01:42:50.711Z,87.17
2022-11-30T01:45:20.379Z,87.01
2022-11-30T01:47:55.265Z,86.70
2022-11-30T01:50:32.175Z,87.25
2022-11-30T01:53:05.157Z,87.00
2022-11-30T01:55:43.432Z,87.30
2022-11-30T01:58:17.913Z,86.74
2022-11-30T02:00:50.018Z,86.90
2022-11-30T02:03:40.689Z,86.77
2022-11-30T02:06:11.678Z,86.43
2022-11-30T02:08:41.384Z,86.23
2022-11-30T02:11:16.830Z,86.60
2022-11-30T02:13:55.001Z,86.89
2022-11-30T02:16:49.408Z,86.69
2022-11-30T02:19:44.128Z,86.73
2022-11-30T02:22:50.837Z,86.61
2022-11-30T02:25:48.965Z,86.75
2022-11-30T02:28:42.975Z,86.93
2022-11-30T02:31:20.228Z,87.54
2022-11-30T02:33:52.464Z,87.66
2022-11-30T02:36:24.516Z,87.90
2022-11-30T02:38:54.576Z,87.87
2022-11-30T02:41:24.310Z,88.01
2022-11-30T02:43:54.584Z,87.91
2022-11-30T02:46:35.213Z,87.75
2022-11-30T02:49:28.409Z,87.67
2022-11-30T02:51:59.858Z,88.09
2022-11-30T02:54:30.082Z,88.62
2022-11-30T02:56:59.791Z,88.69
2022-11-30T02:59:30.171Z,89.28
2022-11-30T03:02:00.071Z,89.55
2022-11-30T03:04:29.827Z,90.22
2022-11-30T03:07:00.261Z,90.31
2022-11-30T03:09:29.993Z,90.53
2022-11-30T03:11:59.812Z,90.65
2022-11-30T03:14:29.521Z,91.13
2022-11-30T03:16:59.226Z,91.29
2022-11-30T03:19:29.063Z,91.70
2022-11-30T03:21:58.791Z,92.23
2022-11-30T03:24:28.642Z,92.08
2022-11-30T03:26:58.392Z,91.65
2022-11-30T03:29:28.288Z,91.45
2022-11-30T03:31:57.999Z,91.23
2022-11-30T03:34:28.772Z,90.94
2022-11-30T03:36:58.545Z,90.35
2022-11-30T03:39:29.321Z,90.36
2022-11-30T03:41:59.085Z,90.90
2022-11-30T03:44:28.853Z,91.25
2022-11-30T03:46:58.597Z,91.21
2022-11-30T03:49:28.435Z,92.06
2022-11-30T03:51:58.119Z,92.10
2022-11-30T03:54:27.821Z,92.21
2022-11-30T03:56:57.616Z,92.42
2022-11-30T03:59:27.368Z,92.89
2022-11-30T04:01:57.302Z,93.22
2022-11-30T04:04:27.283Z,93.49
2022-11-30T04:06:56.961Z,93.63
2022-11-30T04:09:26.740Z,93.83
2022-11-30T04:11:56.444Z,94.19
2022-11-30T04:14:26.181Z,94.49
2022-11-30T04:16:55.883Z,94.75
2022-11-30T04:19:25.780Z,94.83
2022-11-30T04:21:55.528Z,95.03
2022-11-30T04:24:25.222Z,95.05
2022-11-30T04:26:54.982Z,95.41
2022-11-30T04:29:24.923Z,95.69
2022-11-30T04:31:54.734Z,95.76
2022-11-30T04:34:24.526Z,95.92
2022-11-30T04:36:58.834Z,96.02
2022-11-30T04:39:30.307Z,96.18
2022-11-30T04:41:59.963Z,96.06
2022-11-30T04:44:29.640Z,95.93
2022-11-30T04:46:59.938Z,96.11
2022-11-30T04:49:30.028Z,96.37
2022-11-30T04:52:01.563Z,96.44
2022-11-30T04:54:33.295Z,96.67
2022-11-30T04:57:03.166Z,96.77
2022-11-30T04:59:32.848Z,96.90
2022-11-30T05:02:02.571Z,96.65
2022-11-30T05:04:32.505Z,96.83
2022-11-30T05:07:02.560Z,96.83
2022-11-30T05:09:32.300Z,97.12
2022-11-30T05:12:02.222Z,97.32
2022-11-30T05:14:31.928Z,97.38
2022-11-30T05:17:01.599Z,97.52
2022-11-30T05:19:31.329Z,97.56
2022-11-30T05:22:01.192Z,97.57
2022-11-30T05:24:30.887Z,97.79
2022-11-30T05:27:01.047Z,97.81
2022-11-30T05:29:30.849Z,97.78
2022-11-30T05:32:00.513Z,98.09
2022-11-30T05:34:30.263Z,97.91
2022-11-30T05:37:01.741Z,97.89
2022-11-30T05:39:31.754Z,97.97
2022-11-30T05:42:01.420Z,97.91
2022-11-30T05:44:31.660Z,98.03
2022-11-30T05:47:01.523Z,98.01
2022-11-30T05:49:31.570Z,97.94
2022-11-30T05:52:01.249Z,98.04
2022-11-30T05:54:30.920Z,98.04
2022-11-30T05:57:00.620Z,98.06
2022-11-30T05:59:30.299Z,98.31
2022-11-30T06:02:00.389Z,98.33
2022-11-30T06:04:30.290Z,98.35
2022-11-30T06:07:00.025Z,98.43
2022-11-30T06:09:30.672Z,98.54
2022-11-30T06:12:00.972Z,98.56
2022-11-30T06:14:31.050Z,98.59
2022-11-30T06:17:00.799Z,98.44
2022-11-30T06:19:30.531Z,98.57
2022-11-30T06:22:00.194Z,98.52
2022-11-30T06:24:30.782Z,98.66
2022-11-30T06:27:00.484Z,98.72
2022-11-30T06:29:30.197Z,98.80
2022-11-30T06:31:59.988Z,98.69
2022-11-30T06:34:34.338Z,98.77
2022-11-30T06:37:04.555Z,98.89
2022-11-30T06:40:04.210Z,99.08
2022-11-30T06:42:24.339Z,98.99
2022-11-30T06:44:54.044Z,99.09
2022-11-30T06:47:23.791Z,98.84
2022-11-30T06:49:53.565Z,99.02
2022-11-30T06:52:24.011Z,99.09
2022-11-30T06:54:53.900Z,99.21
2022-11-30T06:57:27.419Z,98.92
2022-11-30T06:59:59.166Z,98.94
2022-11-30T07:02:29.436Z,98.79
2022-11-30T07:04:59.150Z,98.97
2022-11-30T07:07:31.586Z,99.17
2022-11-30T07:10:01.779Z,99.22
2022-11-30T07:12:31.523Z,99.26
2022-11-30T07:15:01.495Z,99.38
2022-11-30T07:17:31.225Z,99.22
2022-11-30T07:20:01.118Z,99.34
2022-11-30T07:22:31.153Z,99.34
2022-11-30T07:25:18.875Z,99.38
2022-11-30T07:27:48.288Z,98.60
2022-11-30T07:30:18.402Z,99.09
2022-11-30T07:32:48.600Z,99.41
2022-11-30T07:35:18.474Z,99.46
2022-11-30T07:37:48.665Z,99.35
2022-11-30T07:40:18.574Z,99.33
2022-11-30T07:42:49.148Z,99.34
2022-11-30T07:45:18.966Z,99.47
2022-11-30T07:47:48.729Z,99.30
2022-11-30T07:50:18.554Z,99.55
2022-11-30T07:52:48.307Z,99.50
2022-11-30T07:55:19.327Z,99.55
2022-11-30T07:57:49.247Z,99.42
2022-11-30T08:00:18.988Z,99.62
2022-11-30T08:02:52.363Z,99.72
2022-11-30T08:05:24.666Z,99.71
2022-11-30T08:07:55.671Z,99.77
2022-11-30T08:10:26.287Z,99.89
2022-11-30T08:12:56.045Z,99.76
2022-11-30T08:15:32.187Z,99.77
2022-11-30T08:18:06.717Z,99.72
2022-11-30T08:20:36.674Z,99.70
2022-11-30T08:23:06.494Z,99.67
2022-11-30T08:25:36.855Z,99.68
2022-11-30T08:28:07.191Z,99.75
2022-11-30T08:30:37.360Z,99.76
2022-11-30T08:33:07.167Z,99.85
2022-11-30T08:35:36.879Z,99.74
2022-11-30T08:38:06.800Z,99.70
2022-11-30T08:40:36.612Z,99.59
2022-11-30T08:43:06.291Z,99.58
2022-11-30T08:45:36.378Z,99.62
2022-11-30T08:48:06.367Z,99.65
2022-11-30T08:50:36.122Z,99.72
2022-11-30T08:56:04.649Z,99.72
2022-11-30T08:58:38.554Z,99.64
2022-11-30T09:01:16.250Z,99.59
2022-11-30T09:03:48.138Z,99.39
2022-11-30T09:06:23.498Z,99.27
2022-11-30T09:08:54.879Z,99.21
2022-11-30T09:11:30.977Z,99.33
2022-11-30T09:14:03.123Z,99.24
2022-11-30T09:16:33.210Z,99.25
2022-11-30T09:19:03.363Z,98.98
2022-11-30T09:21:33.251Z,98.43
2022-11-30T09:24:03.267Z,90.46
2022-11-30T09:26:34.014Z,92.73
2022-11-30T09:29:04.054Z,94.01
2022-11-30T09:31:39.509Z,94.94
2022-11-30T09:34:12.238Z,93.49
2022-11-30T09:36:42.402Z,88.22
2022-11-30T09:39:14.204Z,83.78
2022-11-30T09:41:59.974Z,81.32
2022-11-30T09:44:38.636Z,80.38
2022-11-30T09:47:45.868Z,81.95
2022-11-30T09:50:26.133Z,79.43
2022-11-30T09:53:16.329Z,84.80
2022-11-30T09:55:46.759Z,85.71
2022-11-30T09:58:34.652Z,86.64
2022-11-30T10:01:07.435Z,86.72
2022-11-30T10:03:37.695Z,88.24
2022-11-30T10:06:16.771Z,88.93
2022-11-30T10:09:09.770Z,86.74
2022-11-30T10:11:47.407Z,85.95
2022-11-30T10:14:34.831Z,82.63
2022-11-30T10:17:21.090Z,80.63
2022-11-30T10:20:02.876Z,73.87
2022-11-30T10:22:50.950Z,78.24
2022-11-30T10:25:37.739Z,78.05
2022-11-30T10:28:45.459Z,76.57
2022-11-30T10:31:17.360Z,77.88
2022-11-30T10:33:55.987Z,78.50
2022-11-30T10:36:30.832Z,80.10
2022-11-30T10:39:14.440Z,78.68
2022-11-30T10:41:59.259Z,79.71
2022-11-30T10:44:37.247Z,80.01
2022-11-30T10:47:17.591Z,77.42
2022-11-30T10:49:54.255Z,77.60
2022-11-30T10:52:28.626Z,73.83
2022-11-30T10:55:04.132Z,73.39
2022-11-30T10:57:35.520Z,72.46
2022-11-30T11:00:07.514Z,71.24
2022-11-30T11:02:49.413Z,72.26
2022-11-30T11:05:31.274Z,69.64
2022-11-30T11:08:19.747Z,68.86
2022-11-30T11:10:52.779Z,67.50
2022-11-30T11:13:39.787Z,70.48
2022-11-30T11:16:13.368Z,63.96
2022-11-30T11:18:58.295Z,66.72
2022-11-30T11:21:28.223Z,67.19
2022-11-30T11:23:59.970Z,64.94
2022-11-30T11:26:31.767Z,66.46
2022-11-30T11:29:02.492Z,64.39
2022-11-30T11:31:45.344Z,64.75
2022-11-30T11:34:32.748Z,62.84
2022-11-30T11:37:24.739Z,63.92
2022-11-30T11:40:02.600Z,61.76
2022-11-30T11:42:59.275Z,64.17
2022-11-30T11:45:39.089Z,63.09
2022-11-30T11:48:31.004Z,63.76
2022-11-30T11:51:07.148Z,64.07
2022-11-30T11:53:55.495Z,64.93
2022-11-30T11:56:35.443Z,60.90
2022-11-30T11:59:11.707Z,63.12
2022-11-30T12:02:09.240Z,63.81
2022-11-30T12:04:50.030Z,65.23
2022-11-30T12:07:48.177Z,61.48
2022-11-30T12:10:51.715Z,62.46
2022-11-30T12:13:29.122Z,63.10
2022-11-30T12:16:16.861Z,61.97
2022-11-30T12:18:47.233Z,61.98
2022-11-30T12:21:20.448Z,61.61
2022-11-30T12:23:53.758Z,58.06
2022-11-30T12:26:45.767Z,62.99
2022-11-30T12:29:48.217Z,59.36
2022-11-30T12:32:32.901Z,61.18
2022-11-30T12:35:14.937Z,58.00
2022-11-30T12:37:55.755Z,60.36
2022-11-30T12:40:34.504Z,61.33
2022-11-30T12:43:18.453Z,59.15
2022-11-30T12:45:50.006Z,57.33
2022-11-30T12:48:39.799Z,61.89
2022-11-30T12:51:30.182Z,59.18
2022-11-30T12:54:13.535Z,55.85
2022-11-30T12:57:08.211Z,57.81
2022-11-30T13:00:07.147Z,56.70
2022-11-30T13:02:43.253Z,56.45
2022-11-30T13:05:31.797Z,58.05
2022-11-30T13:08:16.048Z,55.78
2022-11-30T13:10:48.596Z,55.90
2022-11-30T13:13:27.821Z,60.34
2022-11-30T13:16:00.528Z,52.89
2022-11-30T13:18:32.418Z,58.10
2022-11-30T13:21:35.078Z,56.25
2022-11-30T13:24:23.489Z,55.02
2022-11-30T13:27:33.425Z,55.80
2022-11-30T13:30:21.780Z,55.23
2022-11-30T13:32:59.285Z,55.67
2022-11-30T13:35:32.605Z,53.88
2022-11-30T13:38:37.445Z,58.26
2022-11-30T13:41:10.223Z,54.18
2022-11-30T13:43:48.987Z,55.01
2022-11-30T13:46:25.069Z,55.92
2022-11-30T13:49:24.179Z,57.07
2022-11-30T13:52:20.537Z,57.81
2022-11-30T13:54:51.647Z,56.88
2022-11-30T13:57:31.115Z,59.78
2022-11-30T14:00:02.298Z,60.13
2022-11-30T14:02:34.221Z,54.10
2022-11-30T14:05:19.182Z,57.85
2022-11-30T14:07:52.206Z,58.58
2022-11-30T14:10:36.656Z,61.19
2022-11-30T14:13:26.504Z,56.73
2022-11-30T14:16:01.630Z,57.17
2022-11-30T14:18:35.265Z,60.82
2022-11-30T14:21:32.694Z,59.24
2022-11-30T14:24:23.083Z,60.20
2022-11-30T14:26:54.043Z,56.31
2022-11-30T14:29:45.101Z,55.67
2022-11-30T14:32:39.903Z,53.92
2022-11-30T14:35:15.136Z,55.72
2022-11-30T14:37:55.114Z,56.02
2022-11-30T14:40:27.847Z,57.50
2022-11-30T14:43:03.099Z,58.91
2022-11-30T14:45:35.639Z,56.24
2022-11-30T14:48:18.908Z,56.26
2022-11-30T14:50:56.154Z,55.38
2022-11-30T14:53:56.598Z,53.77
2022-11-30T14:56:48.452Z,55.61
2022-11-30T14:59:51.360Z,57.42
2022-11-30T15:02:27.134Z,58.05
2022-11-30T15:04:58.092Z,56.40
2022-11-30T15:07:30.759Z,57.92
2022-11-30T15:10:10.980Z,55.90
2022-11-30T15:12:43.973Z,56.93
2022-11-30T15:15:25.055Z,55.03
2022-11-30T15:18:20.095Z,55.36
2022-11-30T15:21:01.470Z,56.82
2022-11-30T15:23:31.978Z,57.20
2022-11-30T15:26:12.968Z,59.22
2022-11-30T15:28:47.103Z,56.05
2022-11-30T15:31:18.307Z,54.33
2022-11-30T15:33:51.528Z,56.39
2022-11-30T15:36:33.398Z,54.91
2022-11-30T15:39:10.105Z,56.86
2022-11-30T15:41:40.542Z,59.81
2022-11-30T15:44:28.766Z,60.46
2022-11-30T15:47:03.833Z,61.62
2022-11-30T15:49:37.464Z,61.53
2022-11-30T15:52:10.147Z,59.83
2022-11-30T15:54:53.856Z,58.43
2022-11-30T15:57:26.026Z,58.69
2022-11-30T16:00:21.928Z,58.01
2022-11-30T16:03:07.881Z,57.56
2022-11-30T16:05:39.326Z,55.27
2022-11-30T16:08:20.076Z,57.08
2022-11-30T16:10:50.090Z,58.00
2022-11-30T16:13:23.061Z,53.61
2022-11-30T16:15:54.090Z,55.04
2022-11-30T16:18:26.312Z,56.29
2022-11-30T16:20:59.991Z,53.38
2022-11-30T16:23:30.446Z,54.03
2022-11-30T16:26:00.982Z,57.42
2022-11-30T16:28:30.663Z,56.14
2022-11-30T16:31:03.424Z,55.19
2022-11-30T16:33:34.953Z,55.36
2022-11-30T16:36:22.426Z,58.15
2022-11-30T16:38:54.577Z,58.81
2022-11-30T16:41:26.739Z,58.39
2022-11-30T16:43:58.943Z,56.04
2022-11-30T16:46:30.875Z,57.38
2022-11-30T16:49:01.037Z,56.16
2022-11-30T16:51:36.520Z,58.23
2022-11-30T16:54:07.148Z,56.32
2022-11-30T16:56:36.854Z,55.56
2022-11-30T16:59:07.456Z,55.56
2022-11-30T17:01:48.947Z,58.99
2022-11-30T17:04:24.946Z,57.86
2022-11-30T17:07:02.211Z,55.77
2022-11-30T17:09:35.565Z,56.06
2022-11-30T17:12:05.911Z,58.78
2022-11-30T17:14:35.595Z,55.97
2022-11-30T17:17:05.577Z,57.49
2022-11-30T17:19:35.390Z,57.54
2022-11-30T17:22:05.264Z,59.90
2022-11-30T17:24:35.873Z,56.49
2022-11-30T17:27:06.820Z,55.96
2022-11-30T17:29:36.628Z,55.18
2022-11-30T17:32:06.764Z,55.58
2022-11-30T17:34:36.438Z,55.93
2022-11-30T17:37:06.225Z,57.43
2022-11-30T17:39:37.235Z,57.04
2022-11-30T17:42:07.556Z,56.73
2022-11-30T17:44:37.416Z,58.79
2022-11-30T17:47:07.597Z,59.49
2022-11-30T17:49:37.314Z,57.00
2022-11-30T17:52:06.973Z,58.02
2022-11-30T17:54:37.097Z,57.60
2022-11-30T17:57:06.921Z,56.93
2022-11-30T17:59:36.586Z,58.19
2022-11-30T18:02:06.619Z,56.78
2022-11-30T18:04:36.495Z,56.20
2022-11-30T18:07:06.234Z,58.20
2022-11-30T18:09:42.210Z,57.45
2022-11-30T18:12:13.720Z,56.98
2022-11-30T18:14:43.452Z,59.89
2022-11-30T18:17:14.257Z,57.10
2022-11-30T18:19:44.595Z,57.46
2022-11-30T18:22:14.320Z,58.07
2022-11-30T18:24:44.016Z,56.55
2022-11-30T18:27:13.678Z,58.07
2022-11-30T18:29:43.537Z,58.83
2022-11-30T18:32:14.140Z,58.50
2022-11-30T18:34:45.159Z,57.75
2022-11-30T18:37:16.534Z,58.13
2022-11-30T18:39:46.289Z,58.48
2022-11-30T18:42:16.075Z,58.54
2022-11-30T18:44:46.066Z,60.47
2022-11-30T18:47:16.173Z,60.11
2022-11-30T18:49:45.905Z,59.53
2022-11-30T18:52:15.593Z,59.40
2022-11-30T18:54:45.459Z,58.97
2022-11-30T18:57:15.368Z,59.83
2022-11-30T18:59:46.735Z,62.30
2022-11-30T19:02:20.215Z,61.84
2022-11-30T19:04:50.617Z,63.47
2022-11-30T19:07:20.496Z,64.60
2022-11-30T19:09:50.711Z,64.81
2022-11-30T19:12:20.417Z,64.59
2022-11-30T19:14:50.435Z,65.70
2022-11-30T19:17:20.221Z,66.31
2022-11-30T19:19:49.902Z,64.94
2022-11-30T19:22:20.512Z,67.47
2022-11-30T19:24:50.420Z,67.48
2022-11-30T19:27:20.324Z,67.99
2022-11-30T19:29:50.357Z,68.51
2022-11-30T19:32:20.296Z,70.21
2022-11-30T19:34:51.095Z,69.59
2022-11-30T19:37:21.195Z,70.99
2022-11-30T19:39:51.253Z,71.25
2022-11-30T19:42:21.343Z,71.65
2022-11-30T19:44:51.211Z,70.89
2022-11-30T19:47:21.040Z,70.96
2022-11-30T19:49:51.606Z,72.01
2022-11-30T19:52:21.619Z,72.23
2022-11-30T19:54:51.266Z,72.26
2022-11-30T19:57:21.375Z,72.78
2022-11-30T19:59:51.160Z,73.39
2022-11-30T20:02:21.028Z,74.55
2022-11-30T20:04:51.041Z,74.87
2022-11-30T20:07:20.907Z,75.49
2022-11-30T20:09:50.627Z,76.58
2022-11-30T20:12:20.543Z,75.66
2022-11-30T20:14:52.658Z,75.39
2022-11-30T20:17:24.442Z,76.35
2022-11-30T20:19:54.513Z,76.59
2022-11-30T20:22:24.203Z,76.79
2022-11-30T20:24:55.740Z,76.49
2022-11-30T20:27:26.398Z,77.13
2022-11-30T20:29:58.352Z,76.10
2022-11-30T20:32:28.779Z,76.79
2022-11-30T20:34:58.480Z,77.26
2022-11-30T20:37:28.205Z,77.39
2022-11-30T20:39:58.200Z,77.04
2022-11-30T20:42:27.968Z,77.98
2022-11-30T20:44:57.673Z,78.17
2022-11-30T20:47:29.882Z,78.13
2022-11-30T20:50:04.975Z,78.26
2022-11-30T20:52:35.371Z,78.59
2022-11-30T20:55:05.418Z,78.99
2022-11-30T20:57:35.246Z,79.29
2022-11-30T21:00:11.487Z,79.91
2022-11-30T21:02:43.102Z,79.88
2022-11-30T21:05:13.081Z,80.30
2022-11-30T21:07:43.399Z,80.83
2022-11-30T21:10:13.908Z,81.22
2022-11-30T21:12:45.639Z,81.03
2022-11-30T21:15:15.568Z,80.79
2022-11-30T21:17:45.439Z,81.22
2022-11-30T21:20:15.124Z,81.28
2022-11-30T21:22:44.791Z,81.07
2022-11-30T21:25:14.637Z,80.85
2022-11-30T21:27:44.400Z,80.86
2022-11-30T21:30:14.780Z,80.56
2022-11-30T21:32:44.659Z,81.08
2022-11-30T21:35:15.119Z,81.23
2022-11-30T21:37:45.023Z,80.58
2022-11-30T21:40:14.949Z,80.64
2022-11-30T21:42:45.106Z,80.30
2022-11-30T21:45:15.461Z,80.66
2022-11-30T21:47:45.445Z,80.98
2022-11-30T21:50:15.135Z,80.75
2022-11-30T21:52:44.964Z,80.86
2022-11-30T21:55:14.639Z,81.19
2022-11-30T21:57:44.453Z,80.84
2022-11-30T22:00:15.672Z,81.26
2022-11-30T22:02:46.420Z,80.84
2022-11-30T22:05:16.305Z,81.16
2022-11-30T22:07:48.123Z,81.51
2022-11-30T22:10:18.446Z,81.19
2022-11-30T22:12:48.124Z,81.93
2022-11-30T22:15:17.869Z,81.61
2022-11-30T22:17:47.982Z,81.71
2022-11-30T22:20:18.015Z,82.24
2022-11-30T22:22:47.685Z,82.12
2022-11-30T22:25:17.407Z,82.40
2022-11-30T22:27:47.183Z,82.62
2022-11-30T22:30:16.990Z,82.51
2022-11-30T22:32:46.883Z,82.62
2022-11-30T22:35:16.629Z,82.92
2022-11-30T22:37:46.327Z,83.00
2022-11-30T22:40:16.316Z,82.69
2022-11-30T22:42:46.129Z,83.11
2022-11-30T22:45:16.119Z,83.18
2022-11-30T22:47:45.868Z,82.84
2022-11-30T22:50:15.638Z,82.79
2022-11-30T22:53:02.579Z,82.70
2022-11-30T22:55:33.982Z,82.78
2022-11-30T22:58:04.115Z,82.92
2022-11-30T23:00:33.831Z,83.37
2022-11-30T23:03:03.686Z,84.20
2022-11-30T23:05:36.459Z,84.54
2022-11-30T23:08:06.868Z,84.78
2022-11-30T23:10:37.072Z,85.12
2022-11-30T23:13:07.643Z,85.13
2022-11-30T23:15:37.378Z,85.45
2022-11-30T23:18:07.533Z,85.81
2022-11-30T23:20:37.517Z,85.92
2022-11-30T23:23:07.273Z,86.24
2022-11-30T23:25:37.180Z,86.59
2022-11-30T23:28:07.154Z,86.78
2022-11-30T23:30:36.835Z,87.19
2022-11-30T23:33:06.511Z,87.30
2022-11-30T23:35:36.234Z,87.46
2022-11-30T23:38:05.919Z,87.77
2022-11-30T23:40:35.972Z,87.74
2022-11-30T23:43:05.765Z,87.72
2022-11-30T23:45:35.819Z,87.68
2022-11-30T23:48:05.656Z,87.70
2022-11-30T23:50:35.473Z,87.83
2022-11-30T23:53:05.173Z,87.88
2022-11-30T23:55:36.742Z,87.95
2022-11-30T23:58:06.890Z,87.90
